createdAt,value
2018-07-13T00:00:04.039Z,18.55
2018-07-13T00:01:04.032Z,18.49
2018-07-13T00:02:03.792Z,18.49
2018-07-13T00:03:03.773Z,18.52
2018-07-13T00:04:04.018Z,18.49
2018-07-13T00:05:03.794Z,18.37
2018-07-13T00:06:03.773Z,18.4
2018-07-13T00:07:04.028Z,18.43
2018-07-13T00:08:03.770Z,18.41
2018-07-13T00:09:04.026Z,18.38
2018-07-13T00:10:03.778Z,18.4
2018-07-13T00:11:03.788Z,18.34
2018-07-13T00:12:03.790Z,18.35
2018-07-13T00:13:04.021Z,18.23
2018-07-13T00:14:04.035Z,18.23
2018-07-13T00:15:03.790Z,18.15
2018-07-13T00:16:03.794Z,18.15
2018-07-13T00:17:03.774Z,18.16
2018-07-13T00:18:03.784Z,18.22
2018-07-13T00:19:03.791Z,18.22
2018-07-13T00:20:03.799Z,18.23
2018-07-13T00:21:03.789Z,18.26
2018-07-13T00:22:03.580Z,18.2
2018-07-13T00:23:04.032Z,18.31
2018-07-13T00:24:04.048Z,18.22
2018-07-13T00:25:03.786Z,18.23
2018-07-13T00:26:04.039Z,18.31
2018-07-13T00:27:03.800Z,18.23
2018-07-13T00:28:03.775Z,18.25
2018-07-13T00:29:03.772Z,18.26
2018-07-13T00:30:04.032Z,18.25
2018-07-13T00:31:04.034Z,18.26
2018-07-13T00:32:03.783Z,18.25
2018-07-13T00:33:03.529Z,18.2
2018-07-13T00:34:04.032Z,18.2
2018-07-13T00:35:03.791Z,18.19
2018-07-13T00:36:03.791Z,18.08
2018-07-13T00:37:04.036Z,18.19
2018-07-13T00:38:04.041Z,18.16
2018-07-13T00:39:03.541Z,18.19
2018-07-13T00:40:03.552Z,18.11
2018-07-13T00:41:04.027Z,18.11
2018-07-13T00:42:03.793Z,18.1
2018-07-13T00:43:03.775Z,18.1
2018-07-13T00:44:05.881Z,18.16
2018-07-13T00:45:03.790Z,18.15
2018-07-13T00:46:03.779Z,18.19
2018-07-13T00:47:04.032Z,18.05
2018-07-13T00:48:03.783Z,18.1
2018-07-13T00:49:03.775Z,18.13
2018-07-13T00:50:03.531Z,18.22
2018-07-13T00:51:03.836Z,18.1
2018-07-13T00:52:03.796Z,18.11
2018-07-13T00:53:04.048Z,18.07
2018-07-13T00:54:03.787Z,18.18
2018-07-13T00:55:03.527Z,18.13
2018-07-13T00:56:04.010Z,18.04
2018-07-13T00:57:04.050Z,18.03
2018-07-13T00:58:03.795Z,18
2018-07-13T00:59:04.591Z,18.04
2018-07-13T01:00:03.796Z,18.03
2018-07-13T01:01:03.813Z,18.05
2018-07-13T01:02:03.794Z,18.04
2018-07-13T01:03:03.566Z,17.98
2018-07-13T01:04:03.801Z,17.97
2018-07-13T01:05:03.793Z,17.94
2018-07-13T01:06:03.538Z,17.92
2018-07-13T01:07:04.041Z,17.82
2018-07-13T01:08:03.787Z,17.78
2018-07-13T01:09:03.807Z,17.9
2018-07-13T01:10:04.062Z,17.87
2018-07-13T01:11:03.829Z,17.89
2018-07-13T01:12:03.788Z,17.89
2018-07-13T01:13:03.549Z,17.9
2018-07-13T01:14:04.040Z,18.01
2018-07-13T01:15:04.054Z,17.87
2018-07-13T01:16:04.055Z,17.83
2018-07-13T01:17:03.800Z,17.79
2018-07-13T01:18:03.792Z,17.76
2018-07-13T01:19:04.057Z,17.72
2018-07-13T01:20:04.062Z,17.63
2018-07-13T01:21:03.837Z,17.65
2018-07-13T01:22:04.055Z,17.57
2018-07-13T01:23:03.804Z,17.51
2018-07-13T01:24:03.802Z,17.38
2018-07-13T01:25:04.050Z,17.33
2018-07-13T01:26:04.045Z,17.31
2018-07-13T01:27:04.058Z,17.2
2018-07-13T01:28:03.798Z,17.22
2018-07-13T01:29:03.780Z,17.36
2018-07-13T01:30:04.056Z,17.31
2018-07-13T01:31:04.077Z,17.39
2018-07-13T01:32:04.051Z,17.46
2018-07-13T01:33:03.784Z,17.36
2018-07-13T01:34:03.530Z,17.36
2018-07-13T01:35:04.048Z,17.16
2018-07-13T01:36:04.033Z,17.15
2018-07-13T01:37:03.527Z,17.22
2018-07-13T01:38:03.783Z,17.16
2018-07-13T01:39:04.059Z,17.15
2018-07-13T01:40:03.810Z,17.12
2018-07-13T01:41:03.798Z,17.15
2018-07-13T01:42:03.783Z,17.06
2018-07-13T01:43:03.784Z,17.09
2018-07-13T01:44:03.778Z,17.15
2018-07-13T01:45:03.775Z,17.15
2018-07-13T01:46:03.530Z,17.2
2018-07-13T01:47:03.778Z,17.2
2018-07-13T01:48:04.037Z,17.16
2018-07-13T01:49:03.525Z,17.2
2018-07-13T01:50:03.799Z,17.16
2018-07-13T01:51:04.038Z,17.12
2018-07-13T01:52:03.798Z,17.09
2018-07-13T01:53:03.782Z,17.05
2018-07-13T01:54:03.523Z,17.01
2018-07-13T01:55:03.781Z,16.93
2018-07-13T01:56:03.535Z,16.84
2018-07-13T01:57:04.038Z,16.81
2018-07-13T01:58:04.040Z,16.86
2018-07-13T01:59:03.789Z,16.89
2018-07-13T02:00:04.060Z,16.89
2018-07-13T02:01:03.777Z,16.76
2018-07-13T02:02:03.777Z,16.78
2018-07-13T02:03:04.025Z,16.81
2018-07-13T02:04:03.773Z,16.69
2018-07-13T02:05:04.027Z,16.74
2018-07-13T02:06:03.783Z,16.72
2018-07-13T02:07:03.782Z,16.75
2018-07-13T02:08:03.788Z,16.69
2018-07-13T02:09:03.768Z,16.68
2018-07-13T02:10:03.762Z,16.68
2018-07-13T02:11:04.032Z,16.74
2018-07-13T02:12:04.019Z,16.81
2018-07-13T02:13:03.761Z,16.91
2018-07-13T02:14:03.774Z,16.81
2018-07-13T02:15:03.780Z,16.86
2018-07-13T02:16:04.032Z,16.91
2018-07-13T02:17:03.791Z,16.87
2018-07-13T02:18:03.771Z,16.74
2018-07-13T02:19:04.035Z,16.78
2018-07-13T02:20:03.531Z,16.87
2018-07-13T02:21:04.042Z,16.78
2018-07-13T02:22:03.760Z,16.75
2018-07-13T02:23:03.832Z,16.69
2018-07-13T02:24:03.773Z,16.72
2018-07-13T02:25:03.507Z,16.69
2018-07-13T02:26:03.797Z,16.71
2018-07-13T02:27:03.764Z,16.65
2018-07-13T02:28:03.765Z,16.66
2018-07-13T02:29:04.011Z,16.64
2018-07-13T02:30:04.162Z,16.68
2018-07-13T02:31:03.761Z,16.76
2018-07-13T02:32:03.777Z,16.78
2018-07-13T02:33:03.757Z,16.79
2018-07-13T02:34:03.500Z,16.87
2018-07-13T02:35:03.807Z,16.84
2018-07-13T02:36:03.751Z,16.89
2018-07-13T02:37:03.761Z,16.84
2018-07-13T02:38:03.769Z,16.87
2018-07-13T02:39:03.898Z,16.83
2018-07-13T02:40:03.550Z,16.87
2018-07-13T02:41:03.751Z,16.84
2018-07-13T02:42:03.759Z,16.87
2018-07-13T02:43:03.750Z,16.89
2018-07-13T02:44:04.039Z,16.9
2018-07-13T02:45:03.749Z,16.87
2018-07-13T02:46:03.748Z,16.86
2018-07-13T02:47:04.025Z,16.81
2018-07-13T02:48:04.016Z,16.81
2018-07-13T02:49:03.739Z,16.79
2018-07-13T02:50:03.760Z,16.89
2018-07-13T02:51:04.038Z,16.83
2018-07-13T02:52:04.009Z,16.81
2018-07-13T02:53:03.749Z,16.72
2018-07-13T02:54:03.756Z,16.75
2018-07-13T02:55:03.746Z,16.71
2018-07-13T02:56:03.779Z,16.69
2018-07-13T02:57:03.995Z,16.74
2018-07-13T02:58:04.003Z,16.75
2018-07-13T02:59:03.478Z,16.71
2018-07-13T03:00:03.985Z,16.74
2018-07-13T03:01:03.740Z,16.75
2018-07-13T03:02:03.734Z,16.81
2018-07-13T03:03:03.510Z,16.87
2018-07-13T03:04:03.736Z,16.86
2018-07-13T03:05:03.750Z,16.93
2018-07-13T03:06:03.741Z,16.72
2018-07-13T03:07:03.746Z,16.76
2018-07-13T03:08:03.735Z,16.72
2018-07-13T03:09:03.989Z,16.72
2018-07-13T03:10:03.997Z,16.74
2018-07-13T03:11:03.730Z,16.86
2018-07-13T03:12:03.735Z,16.83
2018-07-13T03:13:03.997Z,16.75
2018-07-13T03:14:03.981Z,16.75
2018-07-13T03:15:04.008Z,16.86
2018-07-13T03:16:03.730Z,16.84
2018-07-13T03:17:03.717Z,16.71
2018-07-13T03:18:03.732Z,16.76
2018-07-13T03:19:03.729Z,16.68
2018-07-13T03:20:03.730Z,16.68
2018-07-13T03:21:03.803Z,16.71
2018-07-13T03:22:03.803Z,16.69
2018-07-13T03:23:03.993Z,16.72
2018-07-13T03:24:03.738Z,16.76
2018-07-13T03:25:04.002Z,16.76
2018-07-13T03:26:03.742Z,16.65
2018-07-13T03:27:03.739Z,16.65
2018-07-13T03:28:04.002Z,16.53
2018-07-13T03:29:03.980Z,16.6
2018-07-13T03:30:03.739Z,16.6
2018-07-13T03:31:03.732Z,16.57
2018-07-13T03:32:03.994Z,16.6
2018-07-13T03:33:03.724Z,16.57
2018-07-13T03:34:03.719Z,16.6
2018-07-13T03:35:03.991Z,16.57
2018-07-13T03:36:03.995Z,16.57
2018-07-13T03:37:03.966Z,16.54
2018-07-13T03:38:04.989Z,16.51
2018-07-13T03:39:03.987Z,16.46
2018-07-13T03:40:03.720Z,16.5
2018-07-13T03:41:03.969Z,16.49
2018-07-13T03:42:03.999Z,16.5
2018-07-13T03:43:03.713Z,16.58
2018-07-13T03:44:04.141Z,16.56
2018-07-13T03:45:03.966Z,16.61
2018-07-13T03:46:03.719Z,16.58
2018-07-13T03:47:03.762Z,16.56
2018-07-13T03:48:03.711Z,16.53
2018-07-13T03:49:03.951Z,16.54
2018-07-13T03:50:03.971Z,16.56
2018-07-13T03:51:03.701Z,16.6
2018-07-13T03:52:03.969Z,16.65
2018-07-13T03:53:03.945Z,16.65
2018-07-13T03:54:04.052Z,16.54
2018-07-13T03:55:03.692Z,16.58
2018-07-13T03:56:03.956Z,16.58
2018-07-13T03:57:03.704Z,16.64
2018-07-13T03:58:03.718Z,16.56
2018-07-13T03:59:03.438Z,16.65
2018-07-13T04:00:03.687Z,16.65
2018-07-13T04:01:03.750Z,16.61
2018-07-13T04:02:03.697Z,16.69
2018-07-13T04:03:03.679Z,16.6
2018-07-13T04:04:03.943Z,16.51
2018-07-13T04:05:03.948Z,16.5
2018-07-13T04:06:03.687Z,16.38
2018-07-13T04:07:04.126Z,16.43
2018-07-13T04:08:03.717Z,16.58
2018-07-13T04:09:04.021Z,16.71
2018-07-13T04:10:03.685Z,16.81
2018-07-13T04:11:03.694Z,16.84
2018-07-13T04:12:03.716Z,16.9
2018-07-13T04:13:03.685Z,17.04
2018-07-13T04:14:03.688Z,17.15
2018-07-13T04:15:03.756Z,17.22
2018-07-13T04:16:03.430Z,17.39
2018-07-13T04:17:03.952Z,17.36
2018-07-13T04:18:03.947Z,17.41
2018-07-13T04:19:03.436Z,17.42
2018-07-13T04:20:03.690Z,17.41
2018-07-13T04:21:03.674Z,17.48
2018-07-13T04:22:03.936Z,17.38
2018-07-13T04:23:03.682Z,17.33
2018-07-13T04:24:03.677Z,17.39
2018-07-13T04:25:03.962Z,17.6
2018-07-13T04:26:03.948Z,17.74
2018-07-13T04:27:03.689Z,17.78
2018-07-13T04:28:03.689Z,17.83
2018-07-13T04:29:03.961Z,18.13
2018-07-13T04:30:03.701Z,18.05
2018-07-13T04:31:03.681Z,18.08
2018-07-13T04:32:03.679Z,17.97
2018-07-13T04:33:03.688Z,17.9
2018-07-13T04:34:03.685Z,17.78
2018-07-13T04:35:03.687Z,17.9
2018-07-13T04:36:03.953Z,18.08
2018-07-13T04:37:03.704Z,18.13
2018-07-13T04:38:03.693Z,18.28
2018-07-13T04:39:03.952Z,18.34
2018-07-13T04:40:03.690Z,18.53
2018-07-13T04:41:03.800Z,18.71
2018-07-13T04:42:03.965Z,18.83
2018-07-13T04:43:03.958Z,18.9
2018-07-13T04:44:03.957Z,19.14
2018-07-13T04:45:03.959Z,19.22
2018-07-13T04:46:03.956Z,19.36
2018-07-13T04:47:03.961Z,19.49
2018-07-13T04:48:03.711Z,19.49
2018-07-13T04:49:03.969Z,19.52
2018-07-13T04:50:03.972Z,19.58
2018-07-13T04:51:03.464Z,19.79
2018-07-13T04:52:03.708Z,19.85
2018-07-13T04:53:03.456Z,19.99
2018-07-13T04:54:03.961Z,20.11
2018-07-13T04:55:03.711Z,20.25
2018-07-13T04:56:03.989Z,20.25
2018-07-13T04:57:03.978Z,20.37
2018-07-13T04:58:03.728Z,20.34
2018-07-13T04:59:03.975Z,20.36
2018-07-13T05:00:03.734Z,20.56
2018-07-13T05:01:03.745Z,20.55
2018-07-13T05:02:03.757Z,20.69
2018-07-13T05:03:04.015Z,20.7
2018-07-13T05:04:04.018Z,20.87
2018-07-13T05:05:04.017Z,21.06
2018-07-13T05:06:04.011Z,21.17
2018-07-13T05:07:04.027Z,21.35
2018-07-13T05:08:03.771Z,21.48
2018-07-13T05:09:03.783Z,21.52
2018-07-13T05:10:03.773Z,21.54
2018-07-13T05:11:04.036Z,21.76
2018-07-13T05:12:04.047Z,21.89
2018-07-13T05:13:03.793Z,21.89
2018-07-13T05:14:03.789Z,21.85
2018-07-13T05:15:04.590Z,21.96
2018-07-13T05:16:03.552Z,22.07
2018-07-13T05:17:03.562Z,22.11
2018-07-13T05:18:04.078Z,22.11
2018-07-13T05:19:03.828Z,22.08
2018-07-13T05:20:03.828Z,22.11
2018-07-13T05:21:04.091Z,22.1
2018-07-13T05:22:03.827Z,22.14
2018-07-13T05:23:04.085Z,22.23
2018-07-13T05:24:04.080Z,22.47
2018-07-13T05:25:04.115Z,22.48
2018-07-13T05:26:03.852Z,22.63
2018-07-13T05:27:03.872Z,22.68
2018-07-13T05:28:03.854Z,22.8
2018-07-13T05:29:04.113Z,22.87
2018-07-13T05:30:04.129Z,22.94
2018-07-13T05:31:04.139Z,23.1
2018-07-13T05:32:03.874Z,23.21
2018-07-13T05:33:03.620Z,23.39
2018-07-13T05:34:03.888Z,23.54
2018-07-13T05:35:04.148Z,23.77
2018-07-13T05:36:04.154Z,23.87
2018-07-13T05:37:04.171Z,24.05
2018-07-13T05:38:03.908Z,24.23
2018-07-13T05:39:03.914Z,24.32
2018-07-13T05:40:04.164Z,24.33
2018-07-13T05:41:03.937Z,24.4
2018-07-13T05:42:03.935Z,24.45
2018-07-13T05:43:04.188Z,24.65
2018-07-13T05:44:04.188Z,24.77
2018-07-13T05:45:04.471Z,24.86
2018-07-13T05:46:03.953Z,25.06
2018-07-13T05:47:03.968Z,25.21
2018-07-13T05:48:03.969Z,25.47
2018-07-13T05:49:03.973Z,25.65
2018-07-13T05:50:04.009Z,25.77
2018-07-13T05:51:03.982Z,25.87
2018-07-13T05:52:03.984Z,25.98
2018-07-13T05:53:03.980Z,26.21
2018-07-13T05:54:03.995Z,26.43
2018-07-13T05:55:04.024Z,26.55
2018-07-13T05:56:03.773Z,26.73
2018-07-13T05:57:04.035Z,26.81
2018-07-13T05:58:04.034Z,26.55
2018-07-13T05:59:04.035Z,26.21
2018-07-13T06:00:04.311Z,25.95
2018-07-13T06:01:04.046Z,25.9
2018-07-13T06:02:04.060Z,25.77
2018-07-13T06:03:03.807Z,25.69
2018-07-13T06:04:03.901Z,25.84
2018-07-13T06:05:04.074Z,25.99
2018-07-13T06:06:04.075Z,26.06
2018-07-13T06:07:04.351Z,26.18
2018-07-13T06:08:04.346Z,26.34
2018-07-13T06:09:04.097Z,26.53
2018-07-13T06:10:03.866Z,26.7
2018-07-13T06:11:04.138Z,27.1
2018-07-13T06:12:04.379Z,27.35
2018-07-13T06:13:04.394Z,27.6
2018-07-13T06:14:04.140Z,27.71
2018-07-13T06:23:48.220Z,28.08
2018-07-13T06:24:48.218Z,28.01
2018-07-13T06:25:48.279Z,27.83
2018-07-13T06:26:48.228Z,27.87
2018-07-13T06:27:48.502Z,27.75
2018-07-13T06:28:48.493Z,27.73
2018-07-13T06:29:48.492Z,27.96
2018-07-13T06:30:48.065Z,28.05
2018-07-13T06:31:48.255Z,28.19
2018-07-13T06:32:48.015Z,28.14
2018-07-13T06:33:48.264Z,27.98
2018-07-13T06:34:48.277Z,27.65
2018-07-13T06:35:48.284Z,27.83
2018-07-13T06:36:48.308Z,28.08
2018-07-13T06:37:48.303Z,28.41
2018-07-13T06:38:48.050Z,28.67
2018-07-13T06:39:48.559Z,28.78
2018-07-13T06:40:48.590Z,28.69
2018-07-13T06:41:48.317Z,28.74
2018-07-13T06:42:48.074Z,28.63
2018-07-13T06:43:48.342Z,28.52
2018-07-13T06:44:48.746Z,28.44
2018-07-13T06:45:48.436Z,28.42
2018-07-13T06:46:48.624Z,28.25
2018-07-13T06:47:48.649Z,28.47
2018-07-13T06:48:48.368Z,28.76
2018-07-13T06:49:48.121Z,28.93
2018-07-13T06:50:48.459Z,28.81
2018-07-13T06:51:48.407Z,28.85
2018-07-13T06:52:48.400Z,29.04
2018-07-13T06:53:48.418Z,29.1
2018-07-13T06:54:48.664Z,29.51
2018-07-13T06:55:48.509Z,29.75
2018-07-13T06:56:48.870Z,29.76
2018-07-13T06:57:48.180Z,29.84
2018-07-13T06:58:48.468Z,29.81
2018-07-13T06:59:48.704Z,29.78
2018-07-13T07:00:48.508Z,29.54
2018-07-13T07:01:48.728Z,29.12
2018-07-13T07:02:48.475Z,28.91
2018-07-13T07:03:48.492Z,28.93
2018-07-13T07:04:48.748Z,29.29
2018-07-13T07:05:48.511Z,29.23
2018-07-13T07:06:48.517Z,29.34
2018-07-13T07:07:48.622Z,29.5
2018-07-13T07:08:48.528Z,29.54
2018-07-13T07:09:48.534Z,29.56
2018-07-13T07:10:48.892Z,29.66
2018-07-13T07:11:48.562Z,29.71
2018-07-13T07:12:48.559Z,29.71
2018-07-13T07:13:48.581Z,29.78
2018-07-13T07:14:48.574Z,29.75
2018-07-13T07:15:48.864Z,29.59
2018-07-13T07:16:48.840Z,29.24
2018-07-13T07:17:49.013Z,29.04
2018-07-13T07:18:48.862Z,28.98
2018-07-13T07:19:48.609Z,28.98
2018-07-13T07:20:48.624Z,28.81
2018-07-13T07:21:48.378Z,28.89
2018-07-13T07:22:48.378Z,29.12
2018-07-13T07:23:48.905Z,29.53
2018-07-13T07:24:48.903Z,29.87
2018-07-13T07:25:48.949Z,29.93
2018-07-13T07:26:48.652Z,30.15
2018-07-13T07:27:48.667Z,29.95
2018-07-13T07:28:48.929Z,29.73
2018-07-13T07:29:48.937Z,29.36
2018-07-13T07:30:48.952Z,29.44
2018-07-13T07:31:48.458Z,29.81
2018-07-13T07:32:48.970Z,29.86
2018-07-13T07:33:48.471Z,30.09
2018-07-13T07:34:48.967Z,30.24
2018-07-13T07:35:48.747Z,30.61
2018-07-13T07:36:48.984Z,30.77
2018-07-13T07:37:49.064Z,30.85
2018-07-13T07:38:48.592Z,30.9
2018-07-13T07:39:49.008Z,30.91
2018-07-13T07:40:49.066Z,31.07
2018-07-13T07:41:49.025Z,31.43
2018-07-13T07:42:49.028Z,31.47
2018-07-13T07:43:49.086Z,31.81
2018-07-13T07:44:49.065Z,31.94
2018-07-13T07:45:49.110Z,32.14
2018-07-13T07:46:49.081Z,32.03
2018-07-13T07:47:49.071Z,32.18
2018-07-13T07:48:48.863Z,32.48
2018-07-13T07:49:49.096Z,32.56
2018-07-13T07:50:48.920Z,32.58
2018-07-13T07:51:48.865Z,32.68
2018-07-13T07:52:48.873Z,32.75
2018-07-13T07:53:48.883Z,32.78
2018-07-13T07:54:49.141Z,32.8
2018-07-13T07:55:48.920Z,32.74
2018-07-13T07:56:48.903Z,32.63
2018-07-13T07:57:48.902Z,32.65
2018-07-13T07:58:48.925Z,32.71
2018-07-13T07:59:48.933Z,32.74
2018-07-13T08:00:48.954Z,33.05
2018-07-13T08:01:49.080Z,33.02
2018-07-13T08:02:49.291Z,33.15
2018-07-13T08:03:49.241Z,33.09
2018-07-13T08:04:49.268Z,33.17
2018-07-13T08:05:49.347Z,33.3
2018-07-13T08:06:49.701Z,33.28
2018-07-13T08:07:49.271Z,33.43
2018-07-13T08:08:49.283Z,33.65
2018-07-13T08:09:49.275Z,33.61
2018-07-13T08:10:49.315Z,33.81
2018-07-13T08:11:49.028Z,34.01
2018-07-13T08:12:49.097Z,34.02
2018-07-13T08:13:49.369Z,33.86
2018-07-13T08:14:48.811Z,33.84
2018-07-13T08:15:49.378Z,33.9
2018-07-13T08:16:49.088Z,34.1
2018-07-13T08:17:49.092Z,34.36
2018-07-13T08:18:49.381Z,34.62
2018-07-13T08:19:49.438Z,35.02
2018-07-13T08:20:48.930Z,35.11
2018-07-13T08:21:49.389Z,35.31
2018-07-13T08:22:49.137Z,35.23
2018-07-13T08:23:49.410Z,34.9
2018-07-13T08:24:49.155Z,34.47
2018-07-13T08:25:49.419Z,34.47
2018-07-13T08:26:49.457Z,34.48
2018-07-13T08:27:48.931Z,34.32
2018-07-13T08:28:49.201Z,34.39
2018-07-13T08:29:49.459Z,34.42
2018-07-13T08:30:49.215Z,34.11
2018-07-13T08:31:49.226Z,33.57
2018-07-13T08:32:48.973Z,33.19
2018-07-13T08:33:49.505Z,33
2018-07-13T08:34:49.503Z,32.9
2018-07-13T08:35:49.265Z,32.96
2018-07-13T08:36:49.270Z,33.02
2018-07-13T08:37:49.671Z,33.09
2018-07-13T08:38:49.539Z,33.49
2018-07-13T08:39:49.578Z,33.46
2018-07-13T08:40:49.157Z,33.77
2018-07-13T08:41:49.067Z,33.8
2018-07-13T08:42:49.584Z,34.01
2018-07-13T08:43:49.366Z,34.02
2018-07-13T08:44:49.344Z,33.61
2018-07-13T08:45:49.819Z,33.39
2018-07-13T08:46:49.383Z,32.97
2018-07-13T08:47:49.382Z,32.86
2018-07-13T08:48:49.375Z,32.75
2018-07-13T08:49:49.387Z,32.96
2018-07-13T08:50:49.725Z,33.22
2018-07-13T08:51:50.012Z,33.09
2018-07-13T08:52:49.162Z,32.59
2018-07-13T08:53:49.227Z,32.3
2018-07-13T08:54:49.180Z,31.92
2018-07-13T08:55:49.537Z,31.84
2018-07-13T08:56:49.469Z,31.93
2018-07-13T08:57:49.723Z,32.12
2018-07-13T08:58:49.465Z,32.21
2018-07-13T08:59:49.905Z,32.21
2018-07-13T09:00:49.828Z,31.71
2018-07-13T09:01:50.050Z,31.1
2018-07-13T09:02:49.772Z,30.5
2018-07-13T09:03:49.524Z,29.93
2018-07-13T09:04:49.576Z,29.32
2018-07-13T09:05:49.987Z,28.69
2018-07-13T09:06:49.313Z,28.32
2018-07-13T09:07:49.536Z,28.11
2018-07-13T09:08:49.569Z,27.82
2018-07-13T09:09:49.826Z,27.63
2018-07-13T09:10:50.070Z,27.4
2018-07-13T09:11:49.792Z,27.29
2018-07-13T09:12:49.894Z,27.35
2018-07-13T09:13:49.610Z,27.42
2018-07-13T09:14:49.600Z,27.58
2018-07-13T09:15:49.872Z,27.71
2018-07-13T09:16:49.621Z,28.08
2018-07-13T09:17:49.877Z,28.29
2018-07-13T09:18:49.635Z,28.26
2018-07-13T09:19:49.397Z,28.27
2018-07-13T09:20:49.896Z,28.15
2018-07-13T09:21:49.649Z,27.9
2018-07-13T09:22:49.928Z,27.8
2018-07-13T09:23:49.938Z,27.82
2018-07-13T09:24:49.672Z,27.9
2018-07-13T09:25:49.676Z,27.93
2018-07-13T09:26:49.704Z,27.86
2018-07-13T09:27:49.733Z,27.93
2018-07-13T09:28:49.699Z,27.98
2018-07-13T09:29:49.740Z,28.11
2018-07-13T09:30:50.080Z,28.22
2018-07-13T09:31:49.742Z,28.1
2018-07-13T09:32:49.735Z,27.93
2018-07-13T09:33:49.990Z,27.86
2018-07-13T09:34:49.741Z,27.78
2018-07-13T09:35:49.808Z,28.07
2018-07-13T09:36:49.743Z,27.87
2018-07-13T09:37:50.015Z,27.83
2018-07-13T09:38:50.007Z,27.82
2018-07-13T09:39:50.026Z,27.63
2018-07-13T09:40:49.771Z,27.55
2018-07-13T09:41:50.031Z,27.52
2018-07-13T09:42:50.042Z,27.58
2018-07-13T09:43:49.799Z,27.51
2018-07-13T09:44:50.046Z,27.4
2018-07-13T09:45:50.075Z,27.39
2018-07-13T09:46:50.115Z,27.35
2018-07-13T09:47:49.803Z,27.4
2018-07-13T09:48:50.052Z,27.39
2018-07-13T09:49:50.062Z,27.33
2018-07-13T09:50:49.914Z,27.33
2018-07-13T09:51:50.102Z,27.39
2018-07-13T09:52:49.840Z,27.42
2018-07-13T09:53:50.547Z,27.4
2018-07-13T09:54:50.109Z,27.2
2018-07-13T09:55:50.198Z,27.18
2018-07-13T09:56:49.632Z,27.15
2018-07-13T09:57:50.117Z,27.15
2018-07-13T09:58:49.864Z,27.1
2018-07-13T09:59:49.886Z,27.05
2018-07-13T10:00:50.703Z,26.83
2018-07-13T10:01:49.889Z,26.71
2018-07-13T10:02:50.134Z,26.74
2018-07-13T10:03:49.638Z,26.73
2018-07-13T10:04:49.903Z,26.77
2018-07-13T10:05:50.186Z,26.71
2018-07-13T10:06:50.163Z,26.77
2018-07-13T10:07:50.175Z,26.85
2018-07-13T10:08:50.165Z,26.83
2018-07-13T10:09:50.172Z,26.84
2018-07-13T10:10:50.223Z,26.95
2018-07-13T10:11:50.181Z,27.03
2018-07-13T10:12:50.193Z,27.03
2018-07-13T10:13:49.944Z,27.3
2018-07-13T10:14:49.959Z,27.65
2018-07-13T10:15:50.331Z,27.85
2018-07-13T10:16:49.956Z,28.05
2018-07-13T10:17:50.227Z,28.22
2018-07-13T10:18:50.242Z,28.29
2018-07-13T10:19:50.234Z,28.49
2018-07-13T10:20:50.185Z,28.59
2018-07-13T10:21:50.219Z,28.74
2018-07-13T10:22:50.264Z,28.75
2018-07-13T10:54:16.754Z,27.07
2018-07-13T10:55:16.531Z,27.15
2018-07-13T10:56:16.483Z,27.39
2018-07-13T10:57:16.461Z,27.52
2018-07-13T10:58:16.228Z,27.67
2018-07-13T10:59:16.723Z,27.82
2018-07-13T11:00:16.765Z,27.89
2018-07-13T11:01:16.495Z,28.07
2018-07-13T11:02:16.744Z,28.35
2018-07-13T11:03:16.234Z,28.59
2018-07-13T11:04:16.252Z,28.64
2018-07-13T11:05:16.498Z,28.86
2018-07-13T11:06:16.511Z,28.85
2018-07-13T11:07:16.742Z,28.76
2018-07-13T11:08:16.766Z,28.62
2018-07-13T11:09:16.517Z,28.44
2018-07-13T11:10:16.520Z,28.32
2018-07-13T11:11:16.521Z,28.23
2018-07-13T11:12:16.535Z,28.3
2018-07-13T11:13:16.556Z,28.15
2018-07-13T11:14:16.301Z,28.2
2018-07-13T11:15:16.564Z,28.33
2018-07-13T11:16:16.798Z,28.38
2018-07-13T11:17:16.826Z,28.48
2018-07-13T11:18:16.841Z,28.52
2018-07-13T11:19:16.586Z,28.44
2018-07-13T11:20:16.573Z,28.47
2018-07-13T11:21:16.317Z,28.33
2018-07-13T11:22:16.580Z,28.32
2018-07-13T11:23:16.839Z,28.29
2018-07-13T11:24:16.939Z,28.23
2018-07-13T11:25:16.589Z,28.15
2018-07-13T11:26:16.869Z,28.22
2018-07-13T11:27:16.861Z,28.23
2018-07-13T11:28:16.865Z,28.12
2018-07-13T11:29:16.627Z,27.96
2018-07-13T11:30:16.886Z,27.85
2018-07-13T11:31:16.629Z,27.83
2018-07-13T11:32:16.942Z,27.71
2018-07-13T11:33:16.971Z,27.73
2018-07-13T11:34:16.643Z,27.74
2018-07-13T11:35:16.902Z,27.73
2018-07-13T11:36:16.923Z,27.86
2018-07-13T11:37:17.645Z,27.89
2018-07-13T11:38:16.918Z,28.05
2018-07-13T11:39:16.672Z,28.17
2018-07-13T11:40:16.936Z,28.14
2018-07-13T11:41:16.939Z,28.26
2018-07-13T11:42:16.436Z,28.27
2018-07-13T11:43:16.949Z,28.3
2018-07-13T11:44:18.118Z,28.19
2018-07-13T11:45:16.957Z,28.19
2018-07-13T11:46:16.964Z,28.2
2018-07-13T11:47:16.708Z,28.27
2018-07-13T11:48:16.982Z,28.39
2018-07-13T11:49:16.994Z,28.45
2018-07-13T11:50:16.733Z,28.6
2018-07-13T11:51:16.734Z,28.88
2018-07-13T11:52:16.904Z,28.94
2018-07-13T11:53:16.748Z,29.01
2018-07-13T11:54:16.749Z,29.17
2018-07-13T11:55:17.019Z,29.31
2018-07-13T11:56:17.020Z,29.44
2018-07-13T11:57:16.781Z,29.53
2018-07-13T11:58:17.032Z,29.5
2018-07-13T11:59:16.787Z,29.44
2018-07-13T12:00:17.041Z,29.56
2018-07-13T12:01:16.786Z,29.68
2018-07-13T12:02:17.069Z,29.76
2018-07-13T12:03:17.054Z,29.82
2018-07-13T12:04:16.811Z,29.9
2018-07-13T12:05:16.827Z,29.86
2018-07-13T12:06:17.076Z,29.82
2018-07-13T12:07:17.110Z,29.81
2018-07-13T12:08:16.847Z,29.63
2018-07-13T12:09:17.095Z,29.45
2018-07-13T12:10:17.132Z,29.45
2018-07-13T12:11:16.850Z,29.34
2018-07-13T12:12:16.860Z,29.23
2018-07-13T12:13:17.130Z,29.2
2018-07-13T12:14:16.656Z,29.08
2018-07-13T12:15:17.144Z,29.1
2018-07-13T12:16:17.160Z,29.19
2018-07-13T12:17:16.882Z,29.34
2018-07-13T12:18:16.911Z,29.38
2018-07-13T12:19:16.901Z,29.44
2018-07-13T12:20:16.943Z,29.5
2018-07-13T12:21:16.904Z,29.59
2018-07-13T12:22:17.182Z,29.76
2018-07-13T12:23:17.438Z,29.81
2018-07-13T12:24:16.670Z,29.79
2018-07-13T12:25:16.933Z,29.79
2018-07-13T12:26:16.682Z,29.78
2018-07-13T12:27:17.190Z,29.9
2018-07-13T12:28:17.200Z,29.98
2018-07-13T12:29:17.205Z,30
2018-07-13T12:30:16.963Z,29.81
2018-07-13T12:31:17.225Z,29.72
2018-07-13T12:32:17.239Z,29.61
2018-07-13T12:33:17.229Z,29.49
2018-07-13T12:34:16.985Z,29.2
2018-07-13T12:35:17.264Z,29.12
2018-07-13T12:36:17.252Z,29.05
2018-07-13T12:37:17.314Z,29.04
2018-07-13T12:38:17.014Z,29.02
2018-07-13T12:39:17.266Z,28.76
2018-07-13T12:40:16.768Z,28.6
2018-07-13T12:41:17.287Z,28.57
2018-07-13T12:42:17.043Z,28.6
2018-07-13T12:43:17.291Z,28.6
2018-07-13T12:44:17.048Z,28.64
2018-07-13T12:45:17.305Z,28.52
2018-07-13T12:46:17.062Z,28.51
2018-07-13T12:47:17.057Z,28.45
2018-07-13T12:48:17.321Z,28.63
2018-07-13T12:49:17.491Z,28.56
2018-07-13T12:50:17.333Z,28.6
2018-07-13T12:51:16.836Z,28.63
2018-07-13T12:52:17.108Z,28.62
2018-07-13T12:53:17.352Z,28.59
2018-07-13T12:54:17.475Z,28.64
2018-07-13T12:55:17.369Z,28.7
2018-07-13T12:56:17.375Z,28.81
2018-07-13T12:57:17.115Z,28.78
2018-07-13T12:58:17.377Z,28.72
2018-07-13T12:59:17.682Z,28.62
2018-07-13T13:00:17.128Z,28.64
2018-07-13T13:01:16.887Z,28.76
2018-07-13T13:02:17.394Z,28.89
2018-07-13T13:03:17.409Z,28.98
2018-07-13T13:04:17.155Z,28.86
2018-07-13T13:05:17.430Z,28.67
2018-07-13T13:06:17.155Z,28.66
2018-07-13T13:07:17.188Z,28.69
2018-07-13T13:08:17.419Z,28.75
2018-07-13T13:09:17.163Z,28.75
2018-07-13T13:10:17.418Z,28.84
2018-07-13T13:11:17.455Z,28.96
2018-07-13T13:12:17.438Z,28.98
2018-07-13T13:13:16.947Z,29.1
2018-07-13T13:14:17.202Z,29.24
2018-07-13T13:15:17.633Z,29.23
2018-07-13T13:16:17.223Z,29.23
2018-07-13T13:17:17.491Z,29.01
2018-07-13T13:18:17.503Z,29.02
2018-07-13T13:19:17.512Z,28.97
2018-07-13T13:20:17.248Z,28.98
2018-07-13T13:21:16.990Z,29.05
2018-07-13T13:22:17.012Z,29.13
2018-07-13T13:23:16.995Z,29.02
2018-07-13T13:24:17.522Z,29.04
2018-07-13T13:25:17.283Z,28.91
2018-07-13T13:26:17.524Z,28.96
2018-07-13T13:27:17.028Z,28.96
2018-07-13T13:28:17.284Z,28.85
2018-07-13T13:29:17.417Z,28.72
2018-07-13T13:30:17.303Z,28.63
2018-07-13T13:31:17.558Z,28.6
2018-07-13T13:32:17.563Z,28.64
2018-07-13T13:33:17.312Z,28.51
2018-07-13T13:34:17.315Z,28.44